createdAt,value
2023-04-11T00:01:51.253Z,84.63
2023-04-11T00:06:53.499Z,84.23
2023-04-11T00:11:56.825Z,83.97
2023-04-11T00:17:01.069Z,84.16
2023-04-11T00:22:04.995Z,84.03
2023-04-11T00:27:07.209Z,84.40
2023-04-11T00:32:09.428Z,84.54
2023-04-11T00:37:12.814Z,84.46
2023-04-11T00:42:14.893Z,84.87
2023-04-11T00:47:17.031Z,85.41
2023-04-11T00:52:19.433Z,85.37
2023-04-11T00:57:22.812Z,85.22
2023-04-11T01:02:25.207Z,85.48
2023-04-11T01:07:28.390Z,85.60
2023-04-11T01:12:30.767Z,85.98
2023-04-11T01:17:33.914Z,86.11
2023-04-11T01:22:38.240Z,86.02
2023-04-11T01:27:42.276Z,86.18
2023-04-11T01:32:44.464Z,85.88
2023-04-11T01:37:46.554Z,85.70
2023-04-11T01:42:49.197Z,86.10
2023-04-11T01:47:52.763Z,86.38
2023-04-11T01:52:54.944Z,86.76
2023-04-11T01:57:57.012Z,86.96
2023-04-11T02:02:59.233Z,86.77
2023-04-11T02:08:01.334Z,86.83
2023-04-11T02:13:03.559Z,86.65
2023-04-11T02:18:06.940Z,86.56
2023-04-11T02:23:09.088Z,86.60
2023-04-11T02:28:11.251Z,86.49
2023-04-11T02:33:13.889Z,86.19
2023-04-11T02:38:15.994Z,86.30
2023-04-11T02:43:18.069Z,85.96
2023-04-11T02:48:20.296Z,85.74
2023-04-11T02:53:22.413Z,86.32
2023-04-11T02:58:26.026Z,86.26
2023-04-11T03:03:28.143Z,86.21
2023-04-11T03:08:30.402Z,86.19
2023-04-11T03:13:32.952Z,85.83
2023-04-11T03:18:35.382Z,86.18
2023-04-11T03:23:38.945Z,86.40
2023-04-11T03:28:41.042Z,86.50
2023-04-11T03:33:44.981Z,86.32
2023-04-11T03:38:47.057Z,86.24
2023-04-11T03:43:49.107Z,85.92
2023-04-11T03:48:51.349Z,85.91
2023-04-11T03:53:53.555Z,85.71
2023-04-11T03:58:56.081Z,85.63
2023-04-11T04:04:00.681Z,85.34
2023-04-11T04:09:04.294Z,85.62
2023-04-11T04:14:06.372Z,85.84
2023-04-11T04:19:08.422Z,86.01
2023-04-11T04:24:12.321Z,86.31
2023-04-11T04:29:14.402Z,86.27
2023-04-11T04:34:21.986Z,86.21
2023-04-11T04:39:25.466Z,86.09
2023-04-11T04:44:27.764Z,86.14
2023-04-11T04:49:30.333Z,86.27
2023-04-11T04:54:32.932Z,86.08
2023-04-11T04:59:35.049Z,85.70
2023-04-11T05:04:37.345Z,85.34
2023-04-11T05:09:39.741Z,85.05
2023-04-11T05:14:42.221Z,84.45
2023-04-11T05:19:44.504Z,83.90
2023-04-11T05:24:46.582Z,83.45
2023-04-11T05:29:48.647Z,83.35
2023-04-11T05:34:58.178Z,82.89
2023-04-11T05:40:01.283Z,82.45
2023-04-11T05:45:03.505Z,81.59
2023-04-11T05:50:06.298Z,80.93
2023-04-11T05:55:09.348Z,80.45
2023-04-11T06:00:13.068Z,79.79
2023-04-11T06:05:16.724Z,78.83
2023-04-11T06:10:19.049Z,77.87
2023-04-11T06:15:22.578Z,77.41
2023-04-11T06:20:25.311Z,77.19
2023-04-11T06:25:27.450Z,76.22
2023-04-11T06:30:29.620Z,76.01
2023-04-11T06:35:31.740Z,75.94
2023-04-11T06:40:34.040Z,74.91
2023-04-11T06:45:36.163Z,74.45
2023-04-11T06:50:41.817Z,73.58
2023-04-11T06:55:43.872Z,72.92
2023-04-11T07:00:46.132Z,71.94
2023-04-11T07:05:48.337Z,71.30
2023-04-11T07:10:50.812Z,70.92
2023-04-11T07:15:52.906Z,70.78
2023-04-11T07:20:55.489Z,69.09
2023-04-11T07:25:57.789Z,68.28
2023-04-11T07:30:59.869Z,66.45
2023-04-11T07:36:01.951Z,63.66
2023-04-11T07:41:05.662Z,63.42
2023-04-11T07:46:07.973Z,62.41
2023-04-11T07:51:10.653Z,61.53
2023-04-11T07:56:13.571Z,60.36
2023-04-11T08:01:23.946Z,60.08
2023-04-11T08:06:26.585Z,59.49
2023-04-11T08:11:28.644Z,58.36
2023-04-11T08:16:30.941Z,57.08
2023-04-11T08:21:33.490Z,55.99
2023-04-11T08:26:35.940Z,55.65
2023-04-11T08:31:46.922Z,54.91
2023-04-11T08:36:49.026Z,55.59
2023-04-11T08:41:51.459Z,55.21
2023-04-11T08:46:53.652Z,54.54
2023-04-11T08:51:56.355Z,53.67
2023-04-11T08:56:58.400Z,53.03
2023-04-11T09:02:09.367Z,52.97
2023-04-11T09:07:11.984Z,52.11
2023-04-11T09:12:14.160Z,51.92
2023-04-11T09:17:17.140Z,51.60
2023-04-11T09:22:19.309Z,51.26
2023-04-11T09:27:24.512Z,51.46
2023-04-11T09:32:34.469Z,51.22
2023-04-11T09:37:57.806Z,50.10
2023-04-11T09:43:04.226Z,50.67
2023-04-11T09:48:06.419Z,50.71
2023-04-11T09:53:11.056Z,50.58
2023-04-11T09:58:13.494Z,49.17
2023-04-11T10:03:16.739Z,48.59
2023-04-11T10:08:32.791Z,48.03
2023-04-11T10:13:39.341Z,46.59
2023-04-11T10:18:50.655Z,46.57
2023-04-11T10:24:20.175Z,44.66
2023-04-11T10:29:28.127Z,43.25
2023-04-11T10:34:31.886Z,42.09
2023-04-11T10:40:00.752Z,41.09
2023-04-11T10:45:14.960Z,40.32
2023-04-11T10:50:26.257Z,40.37
2023-04-11T10:55:30.050Z,38.90
2023-04-11T11:01:00.123Z,38.89
2023-04-11T11:06:07.660Z,37.96
2023-04-11T11:11:11.512Z,37.62
2023-04-11T11:16:16.618Z,38.15
2023-04-11T11:21:27.205Z,37.54
2023-04-11T11:26:40.936Z,37.14
2023-04-11T11:31:48.100Z,35.77
2023-04-11T11:36:50.639Z,36.41
2023-04-11T11:41:53.576Z,35.19
2023-04-11T11:47:09.280Z,34.89
2023-04-11T11:52:12.149Z,34.01
2023-04-11T11:57:23.243Z,35.91
2023-04-11T12:02:29.234Z,35.14
2023-04-11T12:07:33.326Z,33.94
2023-04-11T12:12:37.661Z,33.58
2023-04-11T12:17:40.874Z,34.71
2023-04-11T12:22:43.176Z,35.62
2023-04-11T12:27:47.157Z,34.51
2023-04-11T12:32:49.402Z,33.71
2023-04-11T12:37:51.605Z,32.22
2023-04-11T12:42:57.164Z,31.41
2023-04-11T12:47:59.541Z,31.32
2023-04-11T12:53:01.666Z,31.16
2023-04-11T12:58:04.279Z,32.81
2023-04-11T13:03:06.750Z,34.13
2023-04-11T13:08:09.135Z,34.31
2023-04-11T13:13:17.902Z,34.76
2023-04-11T13:18:20.937Z,35.39
2023-04-11T13:23:22.977Z,35.66
2023-04-11T13:28:25.142Z,36.15
2023-04-11T13:33:27.281Z,36.03
2023-04-11T13:38:29.454Z,36.00
2023-04-11T13:43:31.643Z,36.71
2023-04-11T13:48:33.765Z,36.67
2023-04-11T13:53:36.064Z,36.85
2023-04-11T13:58:39.007Z,37.22
2023-04-11T14:03:43.089Z,36.58
2023-04-11T14:08:47.348Z,36.98
2023-04-11T14:13:50.401Z,36.22
2023-04-11T14:18:52.542Z,36.23
2023-04-11T14:23:55.108Z,36.33
2023-04-11T14:28:57.440Z,37.24
2023-04-11T14:33:59.689Z,38.56
2023-04-11T14:39:02.071Z,39.86
2023-04-11T14:44:04.180Z,40.83
2023-04-11T14:49:07.418Z,42.18
2023-04-11T14:54:09.534Z,44.18
2023-04-11T14:59:11.782Z,45.99
2023-04-11T15:04:14.588Z,47.44
2023-04-11T15:09:20.158Z,49.13
2023-04-11T15:14:29.232Z,49.97
2023-04-11T15:19:31.548Z,51.46
2023-04-11T15:24:33.609Z,53.38
2023-04-11T15:29:36.485Z,56.50
2023-04-11T15:34:40.254Z,58.91
2023-04-11T15:39:42.349Z,62.39
2023-04-11T15:44:44.971Z,67.04
2023-04-11T15:49:47.181Z,69.91
2023-04-11T15:54:49.252Z,71.41
2023-04-11T15:59:52.555Z,72.44
2023-04-11T16:04:55.861Z,74.33
2023-04-11T16:09:58.232Z,75.27
2023-04-11T16:15:00.440Z,76.50
2023-04-11T16:20:04.561Z,77.32
2023-04-11T16:25:07.421Z,77.54
2023-04-11T16:30:09.852Z,77.70
2023-04-11T16:35:12.045Z,78.20
2023-04-11T16:40:14.386Z,78.17
2023-04-11T16:45:16.786Z,77.75
2023-04-11T16:50:19.011Z,77.51
2023-04-11T16:55:21.178Z,78.00
2023-04-11T17:00:24.085Z,77.65
2023-04-11T17:05:26.172Z,77.79
2023-04-11T17:10:28.252Z,77.74
2023-04-11T17:15:30.769Z,77.47
2023-04-11T17:20:32.880Z,77.53
2023-04-11T17:25:34.982Z,77.37
2023-04-11T17:30:37.832Z,77.15
2023-04-11T17:35:40.042Z,77.12
2023-04-11T17:40:42.411Z,77.15
2023-04-11T17:45:44.571Z,77.14
2023-04-11T17:50:46.668Z,77.17
2023-04-11T17:55:49.762Z,76.70
2023-04-11T18:00:56.023Z,76.75
2023-04-11T18:05:59.869Z,75.67
2023-04-11T18:11:03.432Z,75.43
2023-04-11T18:16:05.778Z,75.32
2023-04-11T18:21:08.232Z,75.13
2023-04-11T18:26:10.467Z,75.55
2023-04-11T18:31:12.731Z,76.51
2023-04-11T18:36:14.972Z,77.43
2023-04-11T18:41:18.139Z,78.02
2023-04-11T18:46:20.824Z,78.65
2023-04-11T18:51:23.212Z,78.35
2023-04-11T18:56:26.699Z,78.67
2023-04-11T19:01:29.346Z,79.00
2023-04-11T19:06:31.505Z,79.33
2023-04-11T19:11:36.089Z,79.42
2023-04-11T19:16:38.336Z,79.22
2023-04-11T19:21:41.916Z,79.27
2023-04-11T19:26:44.133Z,79.68
2023-04-11T19:31:46.293Z,80.01
2023-04-11T19:36:48.425Z,79.77
2023-04-11T19:41:51.278Z,79.51
2023-04-11T19:46:53.372Z,79.51
2023-04-11T19:51:55.737Z,79.05
2023-04-11T19:56:57.877Z,78.89
2023-04-11T20:02:01.696Z,78.83
2023-04-11T20:07:04.303Z,78.81
2023-04-11T20:12:06.718Z,78.58
2023-04-11T20:17:09.100Z,78.35
2023-04-11T20:22:13.756Z,77.89
2023-04-11T20:27:16.394Z,77.88
2023-04-11T20:32:19.144Z,77.88
2023-04-11T20:37:22.582Z,77.59
2023-04-11T20:42:25.856Z,77.21
2023-04-11T20:47:27.949Z,76.88
2023-04-11T20:52:31.177Z,76.55
2023-04-11T20:57:36.282Z,76.74
2023-04-11T21:02:38.817Z,76.57
2023-04-11T21:07:42.237Z,76.58
2023-04-11T21:12:51.097Z,76.39
2023-04-11T21:17:53.610Z,76.64
2023-04-11T21:22:55.933Z,76.36
2023-04-11T21:27:58.070Z,76.20
2023-04-11T21:33:00.363Z,76.51
2023-04-11T21:38:02.458Z,77.02
2023-04-11T21:43:05.643Z,76.99
2023-04-11T21:48:07.766Z,76.91
2023-04-11T21:53:09.913Z,76.85
2023-04-11T21:58:22.285Z,77.05
2023-04-11T22:03:30.782Z,77.25
2023-04-11T22:08:33.156Z,77.43
2023-04-11T22:13:39.758Z,77.25
2023-04-11T22:18:47.484Z,77.05
2023-04-11T22:23:57.286Z,76.84
2023-04-11T22:29:03.247Z,77.19
2023-04-11T22:34:08.128Z,77.86
2023-04-11T22:39:10.361Z,78.05
2023-04-11T22:44:12.395Z,78.28
2023-04-11T22:49:14.716Z,78.62
2023-04-11T22:54:16.779Z,78.71
2023-04-11T22:59:18.843Z,78.93
2023-04-11T23:04:21.502Z,79.25
2023-04-11T23:09:23.829Z,79.47
2023-04-11T23:14:31.132Z,79.69
2023-04-11T23:19:34.138Z,79.50
2023-04-11T23:24:36.290Z,79.37
2023-04-11T23:29:39.149Z,78.80
2023-04-11T23:34:41.576Z,78.82
2023-04-11T23:39:43.719Z,78.19
2023-04-11T23:44:46.505Z,78.14
2023-04-11T23:49:48.553Z,78.31
2023-04-11T23:54:50.844Z,78.38
2023-04-11T23:59:52.944Z,78.57
